createdAt,value
2018-03-08T00:01:23.249Z,99539.97
2018-03-08T00:05:26.613Z,99535.36
2018-03-08T00:09:30.057Z,99535.27
2018-03-08T00:13:33.571Z,99541.29
2018-03-08T00:17:36.943Z,99550.25
2018-03-08T00:21:40.445Z,99554.93
2018-03-08T00:25:43.822Z,99542.55
2018-03-08T00:29:47.201Z,99547.66
2018-03-08T00:33:50.638Z,99542.86
2018-03-08T00:37:54.020Z,99541.92
2018-03-08T00:41:58.158Z,99540.14
2018-03-08T00:46:02.284Z,99541.50
2018-03-08T00:50:06.119Z,99537.33
2018-03-08T00:54:09.547Z,99533.74
2018-03-08T00:58:12.918Z,99534.16
2018-03-08T01:02:16.314Z,99526.41
2018-03-08T01:06:20.441Z,99530.27
2018-03-08T01:10:23.825Z,99521.89
2018-03-08T01:14:27.188Z,99527.41
2018-03-08T01:18:30.542Z,99525.15
2018-03-08T01:22:34.794Z,99530.59
2018-03-08T01:26:38.290Z,99524.17
2018-03-08T01:30:42.438Z,99528.36
2018-03-08T01:34:45.800Z,99517.34
2018-03-08T01:38:49.187Z,99518.20
2018-03-08T01:42:52.559Z,99514.70
2018-03-08T01:46:56.334Z,99514.02
2018-03-08T01:51:00.456Z,99513.58
2018-03-08T01:55:04.685Z,99513.58
2018-03-08T01:59:08.819Z,99519.47
2018-03-08T02:03:13.074Z,99518.91
2018-03-08T02:07:16.432Z,99515.98
2018-03-08T02:11:20.589Z,99511.27
2018-03-08T02:15:23.945Z,99508.00
2018-03-08T02:19:27.352Z,99510.12
2018-03-08T02:23:30.702Z,99514.78
2018-03-08T02:27:34.074Z,99511.84
2018-03-08T02:31:38.223Z,99507.55
2018-03-08T02:35:41.788Z,99506.34
2018-03-08T02:39:45.144Z,99509.00
2018-03-08T02:43:48.493Z,99510.27
2018-03-08T02:47:51.867Z,99512.32
2018-03-08T02:51:55.222Z,99509.78
2018-03-08T02:55:58.625Z,99506.89
2018-03-08T03:00:02.062Z,99505.61
2018-03-08T03:04:06.187Z,99505.61
2018-03-08T03:08:10.333Z,99502.62
2018-03-08T03:12:13.705Z,99502.70
2018-03-08T03:16:17.839Z,99504.38
2018-03-08T03:20:21.953Z,99501.75
2018-03-08T03:24:26.090Z,99503.09
2018-03-08T03:28:29.452Z,99500.59
2018-03-08T03:32:32.814Z,99493.84
2018-03-08T03:36:36.174Z,99496.47
2018-03-08T03:40:40.293Z,99490.50
2018-03-08T03:44:43.658Z,99487.54
2018-03-08T03:48:47.033Z,99490.52
2018-03-08T03:52:51.158Z,99482.83
2018-03-08T03:56:55.282Z,99485.88
2018-03-08T04:01:13.894Z,99489.31
2018-03-08T04:05:17.262Z,99489.33
2018-03-08T04:09:20.630Z,99490.61
2018-03-08T04:13:24.018Z,99485.88
2018-03-08T04:17:27.376Z,99488.89
2018-03-08T04:21:30.745Z,99488.39
2018-03-08T04:25:34.114Z,99475.30
2018-03-08T04:29:37.654Z,99473.93
2018-03-08T04:33:41.006Z,99487.11
2018-03-08T04:37:44.397Z,99486.82
2018-03-08T04:41:48.527Z,99489.64
2018-03-08T04:45:51.961Z,99498.16
2018-03-08T04:49:55.322Z,99492.63
2018-03-08T04:53:59.444Z,99495.63
2018-03-08T04:58:03.590Z,99495.12
2018-03-08T05:02:07.050Z,99497.31
2018-03-08T05:06:10.400Z,99498.09
2018-03-08T05:10:13.776Z,99506.11
2018-03-08T05:14:17.203Z,99497.64
2018-03-08T05:18:21.342Z,99506.22
2018-03-08T05:22:24.698Z,99501.94
2018-03-08T05:26:28.209Z,99499.36
2018-03-08T05:30:31.665Z,99503.66
2018-03-08T05:34:35.030Z,99504.13
2018-03-08T05:38:38.409Z,99504.39
2018-03-08T05:42:41.764Z,99499.80
2018-03-08T05:46:46.019Z,99501.95
2018-03-08T05:50:49.373Z,99507.48
2018-03-08T05:54:52.729Z,99510.03
2018-03-08T05:58:56.082Z,99516.33
2018-03-08T06:02:59.724Z,99514.20
2018-03-08T06:07:03.102Z,99508.27
2018-03-08T06:11:06.489Z,99508.78
2018-03-08T06:15:09.971Z,99521.48
2018-03-08T06:19:13.330Z,99524.91
2018-03-08T06:23:16.711Z,99525.69
2018-03-08T06:27:20.061Z,99525.69
2018-03-08T06:31:24.189Z,99526.06
2018-03-08T06:35:27.865Z,99527.04
2018-03-08T06:39:31.250Z,99527.54
2018-03-08T06:43:34.617Z,99529.66
2018-03-08T06:47:37.995Z,99528.66
2018-03-08T06:51:41.374Z,99531.05
2018-03-08T06:55:44.752Z,99531.13
2018-03-08T06:59:48.373Z,99527.22
2018-03-08T07:03:51.760Z,99529.92
2018-03-08T07:07:55.252Z,99525.69
2018-03-08T07:11:59.580Z,99522.84
2018-03-08T07:16:03.713Z,99525.52
2018-03-08T07:20:07.909Z,99533.93
2018-03-08T07:24:11.309Z,99546.73
2018-03-08T07:28:14.645Z,99544.44
2018-03-08T07:32:17.989Z,99551.24
2018-03-08T07:36:21.472Z,99557.26
2018-03-08T07:40:24.841Z,99555.89
2018-03-08T07:44:28.223Z,99549.55
2018-03-08T07:48:31.580Z,99554.60
2018-03-08T07:52:34.958Z,99546.14
2018-03-08T07:56:39.166Z,99545.27
2018-03-08T08:00:42.576Z,99546.22
2018-03-08T08:05:03.851Z,99537.03
2018-03-08T08:09:10.099Z,99541.63
2018-03-08T08:13:13.453Z,99540.17
2018-03-08T08:17:16.814Z,99541.91
2018-03-08T08:21:20.187Z,99540.00
2018-03-08T08:25:23.552Z,99540.17
2018-03-08T08:29:26.942Z,99540.84
2018-03-08T08:33:30.350Z,99543.14
2018-03-08T08:37:33.959Z,99547.75
2018-03-08T08:41:37.404Z,99551.00
2018-03-08T08:45:40.784Z,99541.76
2018-03-08T08:49:44.320Z,99543.82
2018-03-08T08:53:47.859Z,99558.42
2018-03-08T08:57:52.097Z,99564.33
2018-03-08T09:01:56.244Z,99557.93
2018-03-08T09:05:59.638Z,99558.87
2018-03-08T09:10:03.144Z,99555.94
2018-03-08T09:14:06.549Z,99561.61
2018-03-08T09:18:10.082Z,99565.95
2018-03-08T09:22:13.443Z,99565.86
2018-03-08T09:26:16.788Z,99572.02
2018-03-08T09:30:20.176Z,99566.87
2018-03-08T09:34:23.548Z,99560.13
2018-03-08T09:38:27.090Z,99562.86
2018-03-08T09:42:30.477Z,99560.55
2018-03-08T09:46:33.914Z,99553.19
2018-03-08T09:50:37.309Z,99551.36
2018-03-08T09:54:40.688Z,99557.97
2018-03-08T09:58:44.133Z,99554.06
2018-03-08T10:02:47.525Z,99556.60
2018-03-08T10:06:51.659Z,99560.86
2018-03-08T10:10:55.032Z,99556.55
2018-03-08T10:14:59.165Z,99559.03
2018-03-08T10:19:03.307Z,99553.99
2018-03-08T10:23:06.681Z,99562.17
2018-03-08T10:27:10.135Z,99555.17
2018-03-08T10:31:13.496Z,99557.09
2018-03-08T10:35:17.034Z,99558.78
2018-03-08T10:43:24.021Z,99559.22
2018-03-08T10:47:27.377Z,99558.92
2018-03-08T10:51:30.740Z,99553.99
2018-03-08T10:55:34.877Z,99557.75
2018-03-08T10:59:39.111Z,99553.51
2018-03-08T11:03:48.583Z,99558.18
2018-03-08T11:07:52.050Z,99567.56
2018-03-08T11:11:56.376Z,99566.39
2018-03-08T11:16:00.511Z,99571.12
2018-03-08T11:20:04.788Z,99569.55
2018-03-08T11:24:08.266Z,99571.95
2018-03-08T11:28:11.653Z,99570.46
2018-03-08T11:32:16.005Z,99576.47
2018-03-08T11:36:19.376Z,99584.02
2018-03-08T11:40:23.630Z,99589.33
2018-03-08T11:44:26.982Z,99591.61
2018-03-08T11:48:30.537Z,99583.58
2018-03-08T11:52:33.957Z,99583.77
2018-03-08T11:56:37.360Z,99579.93
2018-03-08T12:00:40.763Z,99573.45
2018-03-08T12:04:44.270Z,99575.55
2018-03-08T12:08:47.780Z,99571.91
2018-03-08T12:12:51.154Z,99576.78
2018-03-08T12:16:54.561Z,99581.19
2018-03-08T12:20:58.299Z,99575.01
2018-03-08T12:25:01.734Z,99578.45
2018-03-08T12:29:05.189Z,99571.19
2018-03-08T12:33:08.908Z,99581.48
2018-03-08T12:37:13.048Z,99581.61
2018-03-08T12:41:17.339Z,99582.88
2018-03-08T12:45:20.824Z,99585.73
2018-03-08T12:49:24.204Z,99587.39
2018-03-08T12:53:27.636Z,99587.63
2018-03-08T12:57:31.001Z,99589.20
2018-03-08T13:01:35.142Z,99586.00
2018-03-08T13:05:38.527Z,99575.52
2018-03-08T13:09:42.772Z,99578.24
2018-03-08T13:13:46.383Z,99560.02
2018-03-08T13:17:49.792Z,99562.38
2018-03-08T13:21:53.158Z,99566.25
2018-03-08T13:25:56.531Z,99554.52
2018-03-08T13:30:00.079Z,99556.04
2018-03-08T13:34:04.294Z,99544.58
2018-03-08T13:38:07.791Z,99549.34
2018-03-08T13:42:11.158Z,99543.32
2018-03-08T13:46:14.823Z,99530.84
2018-03-08T13:50:18.197Z,99530.92
2018-03-08T13:54:21.570Z,99521.14
2018-03-08T13:58:25.015Z,99517.44
2018-03-08T14:02:28.624Z,99520.17
2018-03-08T14:06:32.055Z,99516.23
2018-03-08T14:10:35.614Z,99510.80
2018-03-08T14:14:39.787Z,99504.33
2018-03-08T14:18:43.212Z,99503.27
2018-03-08T14:22:47.340Z,99498.31
2018-03-08T14:26:51.479Z,99496.31
2018-03-08T14:30:54.853Z,99494.41
2018-03-08T14:34:58.982Z,99483.30
2018-03-08T14:39:03.313Z,99469.29
2018-03-08T14:43:07.452Z,99466.69
2018-03-08T14:47:12.055Z,99463.08
2018-03-08T14:51:16.957Z,99454.06
2018-03-08T14:55:20.608Z,99449.08
2018-03-08T14:59:24.069Z,99452.95
2018-03-08T15:03:27.437Z,99447.48
2018-03-08T15:07:31.668Z,99459.36
2018-03-08T15:11:35.811Z,99461.35
2018-03-08T15:15:39.177Z,99452.45
2018-03-08T15:19:42.750Z,99457.59
2018-03-08T15:23:46.152Z,99456.31
2018-03-08T15:27:49.533Z,99444.59
2018-03-08T15:31:53.145Z,99443.27
2018-03-08T15:35:56.784Z,99435.53
2018-03-08T15:40:00.165Z,99428.61
2018-03-08T15:44:04.290Z,99421.92
2018-03-08T15:48:07.688Z,99413.89
2018-03-08T15:52:11.910Z,99408.77
2018-03-08T15:56:16.070Z,99404.30
2018-03-08T16:00:19.464Z,99395.23
2018-03-08T16:04:22.926Z,99389.14
2018-03-08T16:08:35.055Z,99385.89
2018-03-08T16:12:39.307Z,99387.46
2018-03-08T16:16:42.722Z,99380.94
2018-03-08T16:20:46.213Z,99374.66
2018-03-08T16:24:49.706Z,99365.48
2018-03-08T16:28:53.837Z,99372.94
2018-03-08T16:32:58.060Z,99371.96
2018-03-08T16:37:02.288Z,99364.62
2018-03-08T16:41:05.744Z,99369.30
2018-03-08T16:45:09.114Z,99371.38
2018-03-08T16:49:12.518Z,99357.50
2018-03-08T16:53:15.898Z,99371.29
2018-03-08T16:57:20.032Z,99369.35
2018-03-08T17:01:24.162Z,99372.11
2018-03-08T17:05:27.558Z,99375.94
2018-03-08T17:09:31.718Z,99379.27
2018-03-08T17:13:35.191Z,99382.59
2018-03-08T17:17:39.390Z,99393.95
2018-03-08T17:21:42.829Z,99398.75
2018-03-08T17:25:46.966Z,99405.52
2018-03-08T17:29:50.345Z,99407.81
2018-03-08T17:33:54.470Z,99406.44
2018-03-08T17:37:58.616Z,99402.44
2018-03-08T17:42:02.061Z,99400.48
2018-03-08T17:46:05.462Z,99399.62
2018-03-08T17:50:08.870Z,99392.66
2018-03-08T17:54:12.372Z,99387.37
2018-03-08T17:58:15.800Z,99374.41
2018-03-08T18:02:19.188Z,99370.98
2018-03-08T18:06:22.554Z,99369.26
2018-03-08T18:10:26.685Z,99372.22
2018-03-08T18:14:30.082Z,99362.73
2018-03-08T18:18:34.239Z,99358.02
2018-03-08T18:22:37.646Z,99363.98
2018-03-08T18:26:41.019Z,99360.16
2018-03-08T18:30:45.277Z,99358.45
2018-03-08T18:34:48.687Z,99356.25
2018-03-08T18:38:52.057Z,99355.77
2018-03-08T18:42:56.233Z,99357.88
2018-03-08T18:46:59.688Z,99355.45
2018-03-08T18:51:03.934Z,99361.40
2018-03-08T18:55:07.312Z,99353.73
2018-03-08T18:59:11.564Z,99358.20
2018-03-08T19:03:14.934Z,99354.95
2018-03-08T19:07:18.317Z,99356.56
2018-03-08T19:11:21.699Z,99353.30
2018-03-08T19:15:25.190Z,99340.83
2018-03-08T19:19:28.645Z,99338.95
2018-03-08T19:23:32.086Z,99325.14
2018-03-08T19:27:36.274Z,99300.13
2018-03-08T19:31:39.702Z,99305.16
2018-03-08T19:35:43.145Z,99311.05
2018-03-08T19:39:46.553Z,99312.34
2018-03-08T19:43:49.923Z,99307.99
2018-03-08T19:47:54.142Z,99299.75
2018-03-08T19:51:57.862Z,99295.36
2018-03-08T19:56:02.068Z,99304.57
2018-03-08T20:00:05.458Z,99313.13
2018-03-08T20:04:08.866Z,99311.31
2018-03-08T20:08:12.243Z,99301.72
2018-03-08T20:12:15.685Z,99305.42
2018-03-08T20:16:19.072Z,99306.00
2018-03-08T20:20:22.485Z,99308.95
2018-03-08T20:24:25.873Z,99305.10
2018-03-08T20:28:29.451Z,99305.52
2018-03-08T20:32:33.624Z,99309.90
2018-03-08T20:36:37.022Z,99312.86
2018-03-08T20:40:40.434Z,99307.78
2018-03-08T20:44:43.835Z,99312.11
2018-03-08T20:48:47.415Z,99309.67
2018-03-08T20:52:50.821Z,99310.27
2018-03-08T20:56:54.179Z,99314.11
2018-03-08T21:00:57.571Z,99305.97
2018-03-08T21:05:00.941Z,99306.98
2018-03-08T21:09:04.318Z,99310.98
2018-03-08T21:13:07.733Z,99306.30
2018-03-08T21:17:11.160Z,99307.79
2018-03-08T21:21:15.319Z,99303.16
2018-03-08T21:25:18.889Z,99300.59
2018-03-08T21:29:22.306Z,99294.97
2018-03-08T21:33:25.659Z,99294.88
2018-03-08T21:37:29.060Z,99293.38
2018-03-08T21:41:32.456Z,99297.04
2018-03-08T21:45:35.831Z,99304.56
2018-03-08T21:49:39.189Z,99301.00
2018-03-08T21:53:42.560Z,99300.64
2018-03-08T21:57:45.923Z,99294.38
2018-03-08T22:01:50.058Z,99289.69
2018-03-08T22:05:54.215Z,99285.92
2018-03-08T22:09:57.612Z,99289.41
2018-03-08T22:14:00.985Z,99285.73
2018-03-08T22:18:05.109Z,99289.19
2018-03-08T22:22:09.257Z,99290.19
2018-03-08T22:26:12.617Z,99284.13
2018-03-08T22:30:16.796Z,99288.12
2018-03-08T22:34:20.165Z,99290.41
2018-03-08T22:38:24.308Z,99290.07
2018-03-08T22:42:27.799Z,99290.35
2018-03-08T22:46:31.961Z,99291.25
2018-03-08T22:50:35.329Z,99296.19
2018-03-08T22:54:39.463Z,99295.23
2018-03-08T22:58:42.855Z,99292.52
2018-03-08T23:02:47.025Z,99296.14
2018-03-08T23:06:50.410Z,99296.75
2018-03-08T23:10:53.798Z,99295.47
2018-03-08T23:14:58.002Z,99288.98
2018-03-08T23:19:02.895Z,99292.03
2018-03-08T23:23:06.272Z,99292.97
2018-03-08T23:27:09.697Z,99293.17
2018-03-08T23:31:13.067Z,99294.27
2018-03-08T23:35:16.456Z,99293.55
2018-03-08T23:39:19.826Z,99289.34
2018-03-08T23:43:24.806Z,99292.37
2018-03-08T23:47:28.203Z,99285.97
2018-03-08T23:51:31.613Z,99292.87
2018-03-08T23:55:34.985Z,99294.59
2018-03-08T23:59:38.333Z,99297.02
